CDT,Max TemperatureF,Mean TemperatureF,Min TemperatureF,Max Dew PointF,MeanDew PointF,Min DewpointF,Max Humidity, Mean Humidity, Min Humidity, Max Sea Level PressureIn, Mean Sea Level PressureIn, Min Sea Level PressureIn, Max VisibilityMiles, Mean VisibilityMiles, Min VisibilityMiles, Max Wind SpeedMPH, Mean Wind SpeedMPH, Max Gust SpeedMPH,PrecipitationIn, CloudCover, Events, WindDirDegrees
2012-8-1,93,82,71,77,72,70,94,76,49,29.99,29.94,29.87,10,9,0,10,2,,0.00,2,,271
2012-8-2,93,81,69,72,69,66,88,73,44,29.97,29.93,29.90,10,10,7,21,4,24,0.00,0,,244
2012-8-3,87,79,71,73,71,68,94,81,58,30.02,29.97,29.93,10,9,5,8,3,,0.00,2,,205
2012-8-4,91,81,71,72,70,68,94,75,46,30.14,30.08,30.00,10,10,7,18,2,18,0.00,1,,158
2012-8-5,91,80,69,72,69,66,94,72,46,30.22,30.14,30.05,10,10,8,10,2,,0.00,0,,90
2012-8-6,93,82,71,72,70,66,94,74,44,30.13,30.06,29.97,10,10,5,13,3,17,0.40,2,Thunderstorm,66
2012-8-7,91,81,71,73,71,68,94,78,49,30.04,29.99,29.94,10,9,3,13,1,,0.00,2,Thunderstorm,106
2012-8-8,89,79,69,73,71,68,94,79,55,30.06,30.01,29.95,10,10,9,7,1,,0.00,1,Thunderstorm,229
2012-8-9,82,76,69,73,71,66,94,87,74,29.99,29.93,29.85,10,9,1,17,2,24,2.10,2,Thunderstorm,174
2012-8-10,82,76,69,72,69,66,94,83,66,29.91,29.88,29.83,10,7,2,9,3,,0.13,4,Thunderstorm,211
2012-8-11,84,74,64,68,64,55,88,73,39,30.01,29.94,29.86,10,9,5,10,2,16,0.00,3,,356
2012-8-12,82,70,57,63,57,54,94,67,37,30.08,30.04,30.01,10,10,5,8,1,,0.00,0,,319
2012-8-13,80,68,57,70,63,55,94,79,54,30.07,30.03,29.97,10,9,3,8,1,,0.03,2,Thunderstorm,155
2012-8-14,87,78,69,72,69,66,94,79,52,30.01,29.95,29.90,10,9,3,13,4,,0.85,3,Thunderstorm,242
2012-8-15,80,72,64,72,68,63,94,84,61,30.05,29.99,29.93,10,8,2,6,0,,0.00,0,,244
2012-8-16,89,76,64,72,68,63,94,74,46,30.08,30.03,29.94,10,7,0,8,1,,0.00,1,,245
2012-8-17,82,75,68,70,66,63,94,76,58,30.03,29.98,29.93,10,10,7,14,4,,0.00,1,,283
2012-8-18,82,76,69,70,68,66,94,78,58,29.98,29.92,29.87,10,10,6,13,2,18,0.19,4,Thunderstorm,225
2012-8-19,80,73,66,72,67,64,94,83,65,29.93,29.90,29.87,10,9,2,10,2,,0.04,4,,223
2012-8-20,84,72,60,64,60,55,94,69,37,29.99,29.95,29.92,10,9,1,8,1,,0.00,0,,115
2012-8-21,87,74,60,63,57,50,94,62,30,30.07,30.03,29.98,10,10,6,10,1,,0.00,0,,357
2012-8-22,87,72,57,61,57,54,94,60,31,30.14,30.09,30.05,10,10,10,14,3,22,0.00,0,,17
2012-8-23,87,72,57,64,60,55,94,66,33,30.17,30.11,30.07,10,10,7,7,1,,0.00,0,,79
2012-8-24,89,74,60,70,64,57,94,74,40,30.15,30.10,30.03,10,9,3,9,1,,0.06,1,,79
2012-8-25,86,77,68,70,67,64,94,76,51,30.16,30.11,30.08,10,9,5,8,2,,0.00,1,,100
2012-8-26,91,78,64,70,63,55,94,68,29,30.20,30.12,30.05,10,8,2,8,1,,0.00,1,,91
2012-8-27,91,78,64,66,64,61,94,65,38,30.14,30.04,29.96,10,9,2,16,4,21,0.00,0,,74
2012-8-28,77,73,69,73,70,64,94,86,73,30.02,29.97,29.93,10,10,2,13,6,,0.40,4,,66
2012-8-29,87,80,73,73,71,70,94,79,55,30.01,29.96,29.92,10,10,5,12,6,,0.00,4,,87
2012-8-30,82,78,73,72,71,70,89,79,70,30.14,30.04,29.94,10,10,10,13,5,17,0.00,5,,101
2012-8-31,87,81,75,73,72,70,94,78,58,30.22,30.16,30.13,10,10,10,12,4,,0.00,3,,154